Time;durP1;ratioP1;P1;durP2;ratioP2;P2;SDS_P1;SDS_P2;PMS_P1;PMS_P2;Temp;Humidity;BMP_temperature;BMP_pressure;BME280_temperature;BME280_humidity;BME280_pressure;Samples;Min_cycle;Max_cycle;Signal;HPM_P1;HPM_P2
2023/04/04 03:59:08;;;;;;;4.93;2.95;;;;;;;5.81;59.10;100676.97;5613727;31;128081;-57
2023/04/04 04:02:11;;;;;;;4.87;3.30;;;;;;;5.81;59.10;100676.97;5603030;31;33081;-58
2023/04/04 04:05:13;;;;;;;5.82;3.30;;;;;;;5.72;64.57;100667.78;5603226;31;33692;-58
2023/04/04 04:08:15;;;;;;;5.53;3.15;;;;;;;5.37;45.91;100672.25;5602970;31;33109;-58
2023/04/04 04:11:18;;;;;;;5.32;2.95;;;;;;;5.33;45.27;100670.28;5603105;31;33556;-58
2023/04/04 04:14:21;;;;;;;5.62;3.08;;;;;;;5.23;46.04;100656.81;5603242;31;33618;-58
2023/04/04 04:17:23;;;;;;;5.62;3.40;;;;;;;5.38;44.39;100663.22;5602372;31;34420;-58
2023/04/04 04:20:25;;;;;;;5.60;3.30;;;;;;;5.17;43.56;100664.69;5602668;31;33146;-58
2023/04/04 04:23:29;;;;;;;5.55;2.90;;;;;;;5.22;42.82;100657.84;5603118;31;33726;-58
2023/04/04 04:26:31;;;;;;;4.80;2.95;;;;;;;5.08;44.13;100658.13;5603117;31;33598;-58
2023/04/04 04:29:34;;;;;;;5.30;2.70;;;;;;;5.03;43.65;100662.53;5602627;31;34486;-58
2023/04/04 04:32:37;;;;;;;5.22;3.05;;;;;;;5.16;50.63;100654.28;5602895;31;33417;-58
2023/04/04 04:35:40;;;;;;;4.87;2.90;;;;;;;5.09;46.05;100661.59;5602641;31;33346;-58
2023/04/04 04:38:43;;;;;;;5.55;3.35;;;;;;;5.13;46.98;100652.94;5602735;31;33813;-58
2023/04/04 04:41:49;;;;;;;5.53;2.83;;;;;;;5.15;43.68;100656.16;5602967;31;33402;-58
2023/04/04 04:44:52;;;;;;;6.00;3.75;;;;;;;5.47;52.36;100665.50;5602546;31;33196;-58
2023/04/04 04:47:54;;;;;;;5.53;3.30;;;;;;;5.50;53.22;100660.50;5602404;31;33835;-58
2023/04/04 04:50:57;;;;;;;7.37;3.28;;;;;;;5.55;43.67;100657.91;5602565;31;33218;-58
2023/04/04 04:54:00;;;;;;;5.35;3.20;;;;;;;4.74;43.74;100659.06;5602770;31;33254;-58
2023/04/04 04:57:04;;;;;;;7.18;3.22;;;;;;;4.95;43.44;100658.41;5602280;31;31735;-58
2023/04/04 05:00:08;;;;;;;6.22;3.20;;;;;;;4.99;43.25;100654.22;5602312;31;34997;-58
2023/04/04 05:03:11;;;;;;;5.65;3.40;;;;;;;5.04;44.09;100657.00;5598667;31;33666;-58
2023/04/04 05:06:14;;;;;;;6.57;3.80;;;;;;;4.85;43.02;100653.72;5602582;31;33709;-58
2023/04/04 05:09:18;;;;;;;5.25;3.08;;;;;;;4.59;43.41;100648.91;5594094;31;32035;-58
2023/04/04 05:12:20;;;;;;;4.85;3.03;;;;;;;4.41;48.29;100645.38;5588938;31;33702;-58
2023/04/04 05:15:28;;;;;;;6.72;3.90;;;;;;;4.52;45.68;100648.25;5588915;31;33363;-58
2023/04/04 05:18:31;;;;;;;7.20;3.45;;;;;;;4.51;47.12;100644.78;5588404;31;34248;-58
2023/04/04 05:21:33;;;;;;;6.55;3.28;;;;;;;4.58;46.23;100642.00;5589045;31;33480;-58
2023/04/04 05:24:36;;;;;;;5.90;3.08;;;;;;;4.58;43.90;100649.97;5589006;31;33322;-58
2023/04/04 05:27:40;;;;;;;6.50;3.17;;;;;;;4.72;46.93;100652.12;5586111;31;34492;-58
2023/04/04 05:30:43;;;;;;;6.50;3.78;;;;;;;4.38;43.88;100655.66;5589150;31;33849;-58
2023/04/04 05:33:46;;;;;;;6.68;3.60;;;;;;;5.08;64.02;100673.28;5589371;31;31355;-58
2023/04/04 05:36:48;;;;;;;6.85;3.70;;;;;;;5.35;44.84;100671.66;5589016;31;34589;-58
2023/04/04 05:39:51;;;;;;;6.40;3.45;;;;;;;4.83;45.55;100674.37;5589086;31;33364;-58
2023/04/04 05:42:57;;;;;;;5.47;3.55;;;;;;;4.58;45.78;100663.25;5588581;31;33925;-58
2023/04/04 05:46:01;;;;;;;8.75;3.87;;;;;;;4.76;48.49;100670.25;5589091;31;34349;-58
2023/04/04 05:49:05;;;;;;;7.10;3.75;;;;;;;5.12;44.26;100672.56;5588836;31;33225;-58
2023/04/04 05:52:09;;;;;;;10.85;3.53;;;;;;;5.16;43.67;100673.69;5584374;31;33365;-58
2023/04/04 05:55:12;;;;;;;7.90;3.87;;;;;;;5.04;42.80;100672.16;5580990;31;33440;-58
2023/04/04 05:58:16;;;;;;;6.45;3.60;;;;;;;5.14;44.94;100683.78;5576696;31;33143;-57
2023/04/04 06:01:19;;;;;;;6.20;3.25;;;;;;;5.32;42.54;100682.78;5568493;31;33241;-58
2023/04/04 06:04:22;;;;;;;5.32;3.25;;;;;;;5.40;44.02;100681.59;5569306;31;32676;-58
2023/04/04 06:07:26;;;;;;;5.28;3.53;;;;;;;5.48;44.82;100680.41;5571589;31;33608;-58
2023/04/04 06:10:28;;;;;;;4.95;3.15;;;;;;;5.70;45.32;100681.34;5585067;31;34258;-58
2023/04/04 06:13:31;;;;;;;4.85;3.10;;;;;;;6.07;54.98;100678.22;5573535;31;33875;-58
2023/04/04 06:16:35;;;;;;;5.45;2.78;;;;;;;6.42;56.00;100672.59;5578586;31;35002;-58
2023/04/04 06:19:37;;;;;;;4.82;2.85;;;;;;;6.23;42.03;100677.41;5574192;31;34275;-58
2023/04/04 06:22:40;;;;;;;6.80;2.70;;;;;;;6.06;41.35;100679.25;5585645;31;33774;-58
2023/04/04 06:25:42;;;;;;;7.55;3.42;;;;;;;6.56;58.02;100689.88;5584871;31;34463;-58
2023/04/04 06:28:48;;;;;;;8.25;3.70;;;;;;;6.98;67.23;100686.66;5574926;31;33179;-58
2023/04/04 06:31:51;;;;;;;5.00;3.20;;;;;;;7.06;56.10;100674.75;5580292;31;32120;-58
2023/04/04 06:34:53;;;;;;;7.05;3.53;;;;;;;6.95;67.67;100655.16;5578156;31;34385;-58
2023/04/04 06:37:57;;;;;;;6.10;3.45;;;;;;;6.66;42.95;100643.09;5582506;31;33428;-58
2023/04/04 06:41:00;;;;;;;4.93;2.95;;;;;;;6.30;48.35;100637.31;5584791;31;34289;-59
2023/04/04 06:44:02;;;;;;;5.70;3.47;;;;;;;6.48;52.92;100642.31;5584232;31;33731;-58
2023/04/04 06:47:05;;;;;;;7.78;3.45;;;;;;;6.89;62.14;100645.53;5580584;31;33576;-58
2023/04/04 06:50:08;;;;;;;8.95;3.53;;;;;;;6.73;63.28;100639.19;5577250;31;33241;-58
2023/04/04 06:53:11;;;;;;;7.53;3.45;;;;;;;6.31;51.48;100641.56;5582815;31;34824;-58
2023/04/04 06:56:13;;;;;;;6.12;3.60;;;;;;;6.37;48.22;100621.16;5586263;31;33971;-58
2023/04/04 06:59:16;;;;;;;5.90;3.20;;;;;;;6.24;43.94;100632.97;5586345;31;34549;-58
2023/04/04 07:02:19;;;;;;;6.05;3.40;;;;;;;6.88;49.58;100643.09;5581342;31;33621;-58
2023/04/04 07:05:22;;;;;;;6.22;3.20;;;;;;;6.35;46.29;100634.69;5578670;31;33663;-58
2023/04/04 07:08:24;;;;;;;5.55;3.53;;;;;;;6.11;46.46;100645.53;5579966;31;33889;-58
2023/04/04 07:11:28;;;;;;;5.95;3.30;;;;;;;6.20;57.81;100650.47;5579178;31;35009;-58
2023/04/04 07:14:31;;;;;;;6.45;3.28;;;;;;;6.48;55.35;100654.84;5578929;31;33603;-58
2023/04/04 07:17:36;;;;;;;5.35;3.35;;;;;;;6.53;50.84;100658.38;5575781;31;33651;-58
2023/04/04 07:20:39;;;;;;;6.72;3.42;;;;;;;6.99;62.62;100663.50;5573652;31;33761;-58
2023/04/04 07:23:42;;;;;;;4.03;2.92;;;;;;;6.95;45.34;100665.81;5580510;31;33559;-58
2023/04/04 07:26:46;;;;;;;6.00;3.53;;;;;;;6.97;66.76;100668.25;5568047;31;32176;-58
2023/04/04 07:29:49;;;;;;;8.85;3.10;;;;;;;7.08;58.66;100659.31;5566514;31;34300;-58
2023/04/04 07:33:01;;;;;;;5.68;2.97;;;;;;;6.72;41.73;100655.41;5572045;31;34266;-58
2023/04/04 07:36:04;;;;;;;5.30;3.45;;;;;;;6.55;54.34;100652.81;5587076;31;33547;-58
2023/04/04 07:39:06;;;;;;;5.97;3.10;;;;;;;6.78;52.20;100655.22;5587918;31;33620;-58
2023/04/04 07:42:09;;;;;;;4.70;2.78;;;;;;;6.78;46.07;100662.41;5587809;31;33472;-58
2023/04/04 07:45:14;;;;;;;5.28;3.20;;;;;;;7.28;57.04;100664.88;5586833;31;33595;-58
2023/04/04 07:48:17;;;;;;;5.57;3.03;;;;;;;7.70;47.52;100656.19;5576739;31;34274;-58
2023/04/04 07:51:27;;;;;;;4.85;3.10;;;;;;;7.79;43.02;100663.75;5571402;31;33752;-58
2023/04/04 07:54:30;;;;;;;5.95;3.08;;;;;;;7.67;40.38;100663.91;5574868;31;33525;-58
2023/04/04 07:57:38;;;;;;;5.45;3.10;;;;;;;7.36;43.17;100658.28;5581783;31;34252;-58
2023/04/04 08:00:40;;;;;;;7.32;4.00;;;;;;;7.21;43.80;100668.78;5582573;31;33751;-58
2023/04/04 08:03:43;;;;;;;4.62;3.08;;;;;;;7.41;44.56;100674.31;5586447;31;33579;-58
2023/04/04 08:06:46;;;;;;;3.33;2.80;;;;;;;7.83;56.18;100670.97;5587188;31;34301;-58
2023/04/04 08:09:48;;;;;;;5.65;3.15;;;;;;;7.74;56.68;100669.81;5584140;31;33603;-58
2023/04/04 08:12:52;;;;;;;5.15;2.97;;;;;;;7.25;44.05;100659.22;5585175;31;33647;-58
2023/04/04 08:15:54;;;;;;;4.62;3.12;;;;;;;7.48;41.43;100653.59;5566996;31;33748;-58
2023/04/04 08:18:57;;;;;;;5.45;2.95;;;;;;;7.18;42.09;100662.06;5582493;31;33801;-58
2023/04/04 08:22:01;;;;;;;5.55;2.72;;;;;;;7.23;42.31;100672.81;5576493;31;33744;-58
2023/04/04 08:25:04;;;;;;;4.57;2.62;;;;;;;7.07;54.37;100679.84;5581581;31;34352;-58
2023/04/04 08:28:07;;;;;;;4.20;2.45;;;;;;;7.30;40.62;100669.94;5585378;31;33565;-58
2023/04/04 08:31:10;;;;;;;5.80;3.03;;;;;;;7.09;39.91;100676.12;5579880;31;33634;-58
2023/04/04 08:34:12;;;;;;;5.87;3.10;;;;;;;7.50;55.98;100667.47;5584294;31;33856;-58
2023/04/04 08:37:14;;;;;;;5.60;2.90;;;;;;;8.27;72.70;100667.28;5581473;31;34943;-57
2023/04/04 08:40:17;;;;;;;5.20;3.00;;;;;;;7.85;41.72;100668.88;5576439;31;35686;-58
2023/04/04 08:43:22;;;;;;;6.50;2.60;;;;;;;7.67;39.46;100669.22;5573015;31;33296;-58
2023/04/04 08:46:26;;;;;;;4.30;2.40;;;;;;;7.15;42.83;100670.59;5576168;31;33702;-58
2023/04/04 08:49:32;;;;;;;5.78;2.53;;;;;;;7.25;50.95;100652.06;5575350;31;33257;-58
2023/04/04 08:52:35;;;;;;;;;;;;;;;7.41;41.36;100666.31;5580729;31;35152;-57
2023/04/04 08:55:38;;;;;;;4.57;2.58;;;;;;;7.53;41.92;100660.84;5575300;31;33776;-58
2023/04/04 08:58:40;;;;;;;6.43;2.85;;;;;;;7.44;42.53;100635.66;5587831;31;33641;-58
2023/04/04 09:01:43;;;;;;;3.80;2.47;;;;;;;7.22;38.81;100643.75;5571472;31;34231;-58
2023/04/04 09:04:47;;;;;;;4.28;2.80;;;;;;;7.20;41.34;100643.97;5578205;31;33588;-58
2023/04/04 09:08:06;;;;;;;4.35;2.70;;;;;;;7.58;42.62;100647.53;5578228;31;33322;-58
2023/04/04 09:11:10;;;;;;;3.83;2.72;;;;;;;7.94;54.04;100645.97;5572951;31;33628;-58
2023/04/04 09:14:12;;;;;;;4.53;2.83;;;;;;;7.67;44.34;100645.22;5573684;31;33678;-58
2023/04/04 09:17:15;;;;;;;5.90;3.05;;;;;;;7.79;52.30;100632.50;5578229;31;33096;-58
2023/04/04 09:20:39;;;;;;;4.93;2.85;;;;;;;8.12;62.31;100647.44;5578989;31;33953;-58
2023/04/04 09:23:43;;;;;;;6.95;3.58;;;;;;;8.51;63.05;100649.00;5573081;31;34369;-58
2023/04/04 09:26:51;;;;;;;7.18;3.20;;;;;;;8.63;57.38;100641.59;5586020;31;33700;-58
2023/04/04 09:29:55;;;;;;;5.70;2.95;;;;;;;8.65;53.17;100636.81;5581291;31;33657;-58
2023/04/04 09:33:01;;;;;;;5.50;3.10;;;;;;;8.23;37.66;100648.31;5572231;31;34386;-58
2023/04/04 09:36:10;;;;;;;4.87;3.12;;;;;;;8.06;67.20;100639.66;5569064;32;33757;-58
2023/04/04 09:39:16;;;;;;;5.50;2.95;;;;;;;8.11;40.42;100627.16;5571070;31;34348;-58
2023/04/04 09:42:19;;;;;;;3.37;2.47;;;;;;;7.53;38.84;100639.50;5573364;31;33599;-58
2023/04/04 09:45:27;;;;;;;5.37;2.97;;;;;;;7.42;38.31;100641.28;5568722;31;35226;-58
2023/04/04 09:48:35;;;;;;;7.25;2.97;;;;;;;7.48;40.07;100632.25;5572835;31;33617;-58
2023/04/04 09:51:37;;;;;;;4.22;2.65;;;;;;;7.80;39.59;100622.63;5576623;31;33429;-58
2023/04/04 09:54:40;;;;;;;10.30;3.28;;;;;;;7.77;39.55;100623.94;5581371;31;33604;-58
2023/04/04 09:57:49;;;;;;;7.20;3.47;;;;;;;7.25;37.09;100625.38;5583250;31;33815;-58
2023/04/04 10:00:55;;;;;;;4.72;3.20;;;;;;;7.29;44.73;100623.81;5575029;31;33299;-58
2023/04/04 10:03:57;;;;;;;7.80;2.72;;;;;;;7.34;38.21;100631.03;5580831;31;33709;-58
2023/04/04 10:07:00;;;;;;;7.35;3.40;;;;;;;7.25;38.34;100637.88;5569727;31;34334;-58
2023/04/04 10:10:06;;;;;;;4.25;2.92;;;;;;;7.22;50.23;100631.22;5568918;31;33712;-58
2023/04/04 10:13:12;;;;;;;5.68;3.12;;;;;;;7.70;54.04;100636.72;5573135;31;33146;-58
2023/04/04 10:16:15;;;;;;;4.00;2.87;;;;;;;8.18;40.64;100632.25;5589153;31;33963;-58
2023/04/04 10:19:18;;;;;;;5.45;3.25;;;;;;;7.75;37.99;100626.87;5599644;31;34322;-58
2023/04/04 10:22:22;;;;;;;4.70;2.80;;;;;;;8.08;38.12;100610.81;5575076;31;34441;-58
2023/04/04 10:25:24;;;;;;;4.82;3.30;;;;;;;7.85;37.14;100615.47;5575984;31;33195;-58
2023/04/04 10:28:27;;;;;;;4.87;2.80;;;;;;;7.70;37.34;100612.69;5571232;31;33599;-58
2023/04/04 10:31:32;;;;;;;4.45;2.67;;;;;;;8.18;59.51;100609.03;5579091;31;34319;-58
2023/04/04 10:34:54;;;;;;;4.05;2.58;;;;;;;8.04;38.50;100601.72;5575703;31;33760;-58
2023/04/04 10:37:59;;;;;;;4.93;2.70;;;;;;;8.11;54.12;100597.78;5574769;31;32827;-57
2023/04/04 10:41:04;;;;;;;4.93;3.30;;;;;;;7.68;37.76;100590.78;5579871;31;33700;-58
2023/04/04 10:44:36;;;;;;;3.97;2.67;;;;;;;7.63;39.80;100590.75;5583184;31;34408;-58
2023/04/04 10:47:40;;;;;;;3.80;2.50;;;;;;;8.55;51.17;100604.69;5571038;31;33202;-58
2023/04/04 10:50:42;;;;;;;4.07;2.55;;;;;;;8.45;37.79;100598.25;5588177;31;33712;-58
2023/04/04 10:53:45;;;;;;;4.78;2.95;;;;;;;8.38;40.35;100594.19;5575236;31;34275;-58
2023/04/04 10:56:48;;;;;;;4.22;2.95;;;;;;;8.81;53.73;100597.59;5576015;31;33644;-58
2023/04/04 11:00:01;;;;;;;3.95;2.62;;;;;;;9.16;60.93;100604.88;5575584;31;33669;-58
2023/04/04 11:03:04;;;;;;;3.47;2.40;;;;;;;9.34;49.35;100600.91;5569988;31;34262;-57
2023/04/04 11:06:13;;;;;;;6.30;2.80;;;;;;;9.50;52.96;100590.97;5576300;31;34432;-58
2023/04/04 11:09:45;;;;;;;4.60;2.53;;;;;;;9.51;37.64;100600.63;5575697;31;33669;-58
2023/04/04 11:12:53;;;;;;;5.68;2.90;;;;;;;9.54;40.95;100589.41;5583471;31;33680;-58
2023/04/04 11:16:14;;;;;;;4.65;2.75;;;;;;;9.67;53.25;100570.13;5577408;31;34246;-58
2023/04/04 11:19:16;;;;;;;;;;;;;;;9.70;60.94;100582.97;5587450;31;33599;-58
2023/04/04 11:22:22;;;;;;;4.82;2.40;;;;;;;9.88;55.93;100579.72;5575066;31;34060;-58
2023/04/04 11:25:29;;;;;;;3.58;2.42;;;;;;;9.92;42.71;100585.34;5582609;31;33632;-57
2023/04/04 11:28:34;;;;;;;5.18;2.17;;;;;;;9.47;32.95;100570.09;5585712;31;33906;-57
2023/04/04 11:31:44;;;;;;;4.12;3.00;;;;;;;9.76;40.23;100570.38;5589347;31;33583;-57
2023/04/04 11:34:49;;;;;;;4.82;2.70;;;;;;;10.08;47.13;100570.03;5574820;31;33812;-57
2023/04/04 11:37:54;;;;;;;4.68;2.72;;;;;;;10.23;48.42;100558.47;5587430;31;34418;-57
2023/04/04 11:40:57;;;;;;;4.05;2.65;;;;;;;10.20;46.87;100562.50;5576694;31;33741;-57
2023/04/04 11:44:07;;;;;;;5.22;2.90;;;;;;;10.03;39.61;100553.97;5581149;31;34294;-57
2023/04/04 11:47:11;;;;;;;4.22;3.28;;;;;;;10.34;48.68;100547.47;5579863;31;33314;-57
2023/04/04 11:50:14;;;;;;;5.07;2.97;;;;;;;10.37;44.93;100550.69;5573883;31;33610;-57
2023/04/04 11:53:17;;;;;;;5.25;2.50;;;;;;;10.27;41.99;100541.63;5578488;31;33638;-58
2023/04/04 11:56:19;;;;;;;4.35;2.62;;;;;;;10.10;51.27;100551.84;5575396;31;34407;-58
2023/04/04 11:59:22;;;;;;;5.22;3.25;;;;;;;10.32;48.67;100538.09;5576617;31;33801;-58
2023/04/04 12:02:33;;;;;;;5.20;3.05;;;;;;;10.31;39.97;100542.66;5567639;32;33742;-58
2023/04/04 12:05:42;;;;;;;6.60;3.72;;;;;;;10.33;38.89;100537.03;5579416;31;33234;-57
2023/04/04 12:08:45;;;;;;;9.65;3.12;;;;;;;9.83;35.76;100534.22;5567873;32;34328;-57
2023/04/04 12:11:49;;;;;;;3.87;2.55;;;;;;;10.03;54.22;100535.22;5567923;32;33629;-57
2023/04/04 12:14:53;;;;;;;7.47;3.25;;;;;;;10.46;60.92;100528.41;5577581;31;33734;-57
2023/04/04 12:18:08;;;;;;;4.10;2.53;;;;;;;10.52;45.11;100518.44;5567352;32;33679;-57
2023/04/04 12:21:11;;;;;;;3.47;2.55;;;;;;;10.81;58.51;100523.91;5572105;31;34333;-58
2023/04/04 12:24:13;;;;;;;6.20;3.03;;;;;;;10.93;44.55;100520.91;5588178;31;33724;-57
2023/04/04 12:27:17;;;;;;;3.87;2.70;;;;;;;10.78;44.47;100509.19;5589351;31;34338;-57
2023/04/04 12:30:23;;;;;;;4.00;2.72;;;;;;;10.72;44.56;100510.28;5576642;31;34291;-58
2023/04/04 12:33:25;;;;;;;5.50;3.10;;;;;;;10.66;47.02;100508.75;5584964;31;33120;-57
2023/04/04 12:36:29;;;;;;;4.85;3.10;;;;;;;10.73;53.54;100498.50;5583557;31;33727;-57
2023/04/04 12:39:31;;;;;;;4.25;2.97;;;;;;;10.83;48.19;100497.63;5575525;31;33648;-58
2023/04/04 12:42:34;;;;;;;5.03;2.95;;;;;;;10.69;33.85;100492.06;5568582;32;34267;-57
2023/04/04 12:45:42;;;;;;;4.82;2.87;;;;;;;10.77;41.98;100496.88;5581939;31;33650;-57
2023/04/04 12:48:47;;;;;;;4.85;2.95;;;;;;;10.93;46.78;100500.25;5589189;31;33574;-57
2023/04/04 12:51:55;;;;;;;5.35;2.70;;;;;;;10.94;36.52;100479.59;5588773;31;33872;-57
2023/04/04 12:55:08;;;;;;;4.65;2.83;;;;;;;10.50;36.38;100480.41;5589234;31;34268;-58
2023/04/04 12:58:11;;;;;;;4.85;2.62;;;;;;;10.76;37.22;100481.88;5587975;31;33965;-57
2023/04/04 13:01:16;;;;;;;3.83;2.65;;;;;;;10.71;33.28;100481.88;5589301;31;34919;-57
2023/04/04 13:04:18;;;;;;;4.40;2.80;;;;;;;10.76;45.95;100491.75;5589157;31;33705;-57
2023/04/04 13:07:26;;;;;;;5.03;2.85;;;;;;;10.87;39.54;100487.94;5587993;31;33729;-57
2023/04/04 13:10:28;;;;;;;5.03;2.75;;;;;;;11.01;40.85;100482.75;5589515;31;33705;-57
2023/04/04 13:13:36;;;;;;;4.62;2.75;;;;;;;11.07;37.48;100478.16;5589222;31;33640;-57
2023/04/04 13:16:38;;;;;;;4.50;2.60;;;;;;;10.93;40.10;100473.44;5588706;31;34483;-58
2023/04/04 13:19:46;;;;;;;3.70;2.40;;;;;;;10.95;35.59;100473.12;5586533;31;33608;-57
2023/04/04 13:22:57;;;;;;;5.65;2.80;;;;;;;10.92;33.89;100465.66;5573914;31;34335;-57
2023/04/04 13:25:59;;;;;;;5.03;3.10;;;;;;;10.76;38.97;100471.13;5583128;31;34375;-57
2023/04/04 13:29:02;;;;;;;4.93;2.58;;;;;;;11.07;35.03;100473.59;5583105;31;33655;-58
2023/04/04 13:32:04;;;;;;;4.32;3.00;;;;;;;11.12;35.13;100467.34;5586405;31;34472;-57
2023/04/04 13:35:07;;;;;;;4.47;2.60;;;;;;;11.19;36.55;100459.78;5588815;31;33584;-57
2023/04/04 13:38:10;;;;;;;5.80;2.87;;;;;;;11.09;32.94;100458.00;5587039;31;34271;-58
2023/04/04 13:41:12;;;;;;;3.87;2.58;;;;;;;11.11;41.83;100457.72;5581142;31;33276;-57
2023/04/04 13:44:15;;;;;;;4.18;2.60;;;;;;;11.35;44.68;100455.88;5588605;31;33586;-57
2023/04/04 13:47:17;;;;;;;4.20;2.62;;;;;;;11.19;43.05;100457.09;5582871;31;33757;-57
2023/04/04 13:50:20;;;;;;;4.95;2.60;;;;;;;11.15;45.29;100458.75;5585982;31;34893;-57
2023/04/04 13:53:23;;;;;;;3.92;2.70;;;;;;;10.94;34.07;100460.81;5582845;31;34315;-57
2023/04/04 13:56:26;;;;;;;4.28;2.90;;;;;;;11.23;50.09;100464.31;5583183;31;34003;-57
2023/04/04 13:59:28;;;;;;;5.95;2.80;;;;;;;11.25;40.11;100462.12;5579464;31;33649;-58
2023/04/04 14:02:31;;;;;;;3.85;2.70;;;;;;;11.29;37.35;100460.50;5589215;31;34440;-57
2023/04/04 14:05:33;;;;;;;7.53;3.00;;;;;;;11.22;39.03;100459.22;5587462;31;33664;-57
2023/04/04 14:08:36;;;;;;;7.45;2.60;;;;;;;11.06;32.64;100453.22;5589062;31;33647;-57
2023/04/04 14:11:45;;;;;;;6.43;3.10;;;;;;;11.01;36.97;100454.03;5588308;31;33700;-57
2023/04/04 14:14:47;;;;;;;4.90;2.55;;;;;;;11.27;50.09;100459.97;5589054;31;33917;-57
2023/04/04 14:17:49;;;;;;;3.62;2.47;;;;;;;11.40;54.56;100463.09;5588057;31;33686;-57
2023/04/04 14:20:52;;;;;;;4.75;2.75;;;;;;;11.43;41.00;100459.84;5588521;31;34265;-58
2023/04/04 14:23:54;;;;;;;6.07;3.03;;;;;;;11.45;38.27;100455.78;5588630;31;34462;-57
2023/04/04 14:26:57;;;;;;;4.32;2.85;;;;;;;11.32;34.23;100464.50;5579301;31;33737;-58
2023/04/04 14:29:59;;;;;;;5.07;2.72;;;;;;;11.39;37.90;100466.84;5568946;32;33781;-58
2023/04/04 14:33:01;;;;;;;5.37;2.85;;;;;;;11.36;33.04;100459.38;5582267;31;33765;-57
2023/04/04 14:36:04;;;;;;;5.80;3.05;;;;;;;11.28;37.62;100458.91;5588845;31;33711;-57
2023/04/04 14:39:06;;;;;;;5.05;3.10;;;;;;;11.20;37.35;100464.88;5589011;31;34295;-57
2023/04/04 14:42:08;;;;;;;7.32;3.22;;;;;;;11.18;35.06;100456.31;5586744;31;33650;-57
2023/04/04 14:45:11;;;;;;;3.80;2.80;;;;;;;11.26;45.95;100465.66;5588674;31;33704;-57
2023/04/04 14:48:14;;;;;;;5.35;2.97;;;;;;;11.32;43.03;100467.19;5588751;31;33602;-57
2023/04/04 14:51:18;;;;;;;3.92;2.78;;;;;;;11.28;41.36;100464.25;5587918;31;34292;-57
2023/04/04 14:54:21;;;;;;;5.12;3.00;;;;;;;11.28;37.96;100466.94;5587381;31;34313;-57
2023/04/04 14:57:23;;;;;;;4.90;2.58;;;;;;;11.36;41.58;100467.44;5587810;31;34255;-57
2023/04/04 15:00:25;;;;;;;4.97;2.78;;;;;;;11.40;39.54;100469.25;5587110;31;34303;-57
2023/04/04 15:03:28;;;;;;;5.50;2.87;;;;;;;11.28;38.34;100460.78;5584913;31;33627;-58
2023/04/04 15:06:34;;;;;;;5.65;2.78;;;;;;;11.50;52.99;100468.38;5587182;31;34600;-57
2023/04/04 15:09:36;;;;;;;;;;;;;;;11.60;51.01;100472.84;5587961;31;33407;-57
2023/04/04 15:12:39;;;;;;;4.62;2.92;;;;;;;11.38;39.62;100471.41;5587062;31;34097;-57
2023/04/04 15:15:41;;;;;;;6.15;2.67;;;;;;;11.36;39.65;100467.44;5588325;31;33771;-58
2023/04/04 15:18:44;;;;;;;4.37;2.60;;;;;;;11.41;44.79;100465.47;5588516;31;33822;-57
2023/04/04 15:21:47;;;;;;;7.68;2.80;;;;;;;11.33;56.87;100473.38;5588093;31;34343;-58
2023/04/04 15:24:50;;;;;;;5.43;3.00;;;;;;;11.25;33.68;100472.06;5580704;31;33619;-58
2023/04/04 15:27:52;;;;;;;5.20;3.10;;;;;;;11.22;34.42;100481.47;5588538;31;33701;-57
2023/04/04 15:30:55;;;;;;;4.28;2.80;;;;;;;11.10;34.30;100477.59;5588275;31;34227;-58
2023/04/04 15:33:58;;;;;;;5.25;2.90;;;;;;;10.89;32.82;100484.97;5588366;31;33628;-57
2023/04/04 15:37:03;;;;;;;5.28;3.33;;;;;;;11.15;41.36;100481.00;5587902;31;33729;-57
2023/04/04 15:40:06;;;;;;;5.87;3.15;;;;;;;11.06;32.55;100474.66;5588351;31;33645;-58
2023/04/04 15:43:08;;;;;;;4.62;3.00;;;;;;;11.15;38.67;100480.22;5588114;31;33706;-57
2023/04/04 15:46:10;;;;;;;3.95;2.47;;;;;;;11.30;48.11;100498.88;5587721;31;33803;-57
2023/04/04 15:49:13;;;;;;;6.68;3.08;;;;;;;11.41;48.67;100489.66;5588321;31;33564;-57
